sensor_id;sensor_type;location;lat;lon;timestamp;temperature;humidity
76857;DHT22;69705;44.686;37.628;2023-08-20T00:02:13;23.39;63.50
76857;DHT22;69705;44.686;37.628;2023-08-20T00:04:41;23.27;63.93
76857;DHT22;69705;44.686;37.628;2023-08-20T00:07:09;23.25;63.36
76857;DHT22;69705;44.686;37.628;2023-08-20T00:09:36;23.18;64.27
76857;DHT22;69705;44.686;37.628;2023-08-20T00:12:02;23.27;65.72
76857;DHT22;69705;44.686;37.628;2023-08-20T00:15:00;23.30;65.88
76857;DHT22;69705;44.686;37.628;2023-08-20T00:17:35;23.34;65.45
76857;DHT22;69705;44.686;37.628;2023-08-20T00:20:03;23.29;64.88
76857;DHT22;69705;44.686;37.628;2023-08-20T00:22:40;23.30;64.90
76857;DHT22;69705;44.686;37.628;2023-08-20T00:25:09;23.31;69.10
76857;DHT22;69705;44.686;37.628;2023-08-20T00:27:36;23.32;64.05
76857;DHT22;69705;44.686;37.628;2023-08-20T00:30:02;23.23;63.23
76857;DHT22;69705;44.686;37.628;2023-08-20T00:32:30;23.15;64.63
76857;DHT22;69705;44.686;37.628;2023-08-20T00:34:57;23.18;62.89
76857;DHT22;69705;44.686;37.628;2023-08-20T00:37:25;23.16;62.66
76857;DHT22;69705;44.686;37.628;2023-08-20T00:39:52;23.21;63.28
76857;DHT22;69705;44.686;37.628;2023-08-20T00:42:20;23.23;63.17
76857;DHT22;69705;44.686;37.628;2023-08-20T00:44:46;23.22;63.02
76857;DHT22;69705;44.686;37.628;2023-08-20T00:47:13;23.25;63.03
76857;DHT22;69705;44.686;37.628;2023-08-20T00:49:41;23.15;62.81
76857;DHT22;69705;44.686;37.628;2023-08-20T00:52:09;23.17;63.25
76857;DHT22;69705;44.686;37.628;2023-08-20T00:54:35;23.22;63.49
76857;DHT22;69705;44.686;37.628;2023-08-20T00:57:03;23.18;63.95
76857;DHT22;69705;44.686;37.628;2023-08-20T00:59:32;23.23;63.82
76857;DHT22;69705;44.686;37.628;2023-08-20T01:02:00;23.24;63.99
76857;DHT22;69705;44.686;37.628;2023-08-20T01:04:28;23.25;64.82
76857;DHT22;69705;44.686;37.628;2023-08-20T01:07:18;23.13;64.21
76857;DHT22;69705;44.686;37.628;2023-08-20T01:10:10;23.09;64.88
76857;DHT22;69705;44.686;37.628;2023-08-20T01:12:41;23.01;65.35
76857;DHT22;69705;44.686;37.628;2023-08-20T01:15:08;22.95;66.00
76857;DHT22;69705;44.686;37.628;2023-08-20T01:17:41;22.96;65.74
76857;DHT22;69705;44.686;37.628;2023-08-20T01:20:09;22.93;66.59
76857;DHT22;69705;44.686;37.628;2023-08-20T01:25:40;22.84;67.41
76857;DHT22;69705;44.686;37.628;2023-08-20T01:28:29;22.71;67.78
76857;DHT22;69705;44.686;37.628;2023-08-20T01:30:57;22.69;67.86
76857;DHT22;69705;44.686;37.628;2023-08-20T01:33:25;22.70;67.79
76857;DHT22;69705;44.686;37.628;2023-08-20T01:35:53;22.66;68.10
76857;DHT22;69705;44.686;37.628;2023-08-20T01:38:20;22.68;68.65
76857;DHT22;69705;44.686;37.628;2023-08-20T01:40:48;22.68;69.06
76857;DHT22;69705;44.686;37.628;2023-08-20T01:43:15;22.63;69.71
76857;DHT22;69705;44.686;37.628;2023-08-20T01:45:42;22.69;70.29
76857;DHT22;69705;44.686;37.628;2023-08-20T01:48:09;22.70;70.23
76857;DHT22;69705;44.686;37.628;2023-08-20T01:50:35;22.72;71.03
76857;DHT22;69705;44.686;37.628;2023-08-20T01:53:02;22.75;70.99
76857;DHT22;69705;44.686;37.628;2023-08-20T01:55:29;22.71;72.33
76857;DHT22;69705;44.686;37.628;2023-08-20T01:57:57;22.72;72.51
76857;DHT22;69705;44.686;37.628;2023-08-20T02:00:24;22.61;73.64
76857;DHT22;69705;44.686;37.628;2023-08-20T02:02:51;22.58;73.90
76857;DHT22;69705;44.686;37.628;2023-08-20T02:05:18;22.56;74.25
76857;DHT22;69705;44.686;37.628;2023-08-20T02:07:44;22.55;75.05
76857;DHT22;69705;44.686;37.628;2023-08-20T02:10:11;22.57;74.89
76857;DHT22;69705;44.686;37.628;2023-08-20T02:12:39;22.52;76.05
76857;DHT22;69705;44.686;37.628;2023-08-20T02:15:06;22.56;75.90
76857;DHT22;69705;44.686;37.628;2023-08-20T02:17:35;22.56;76.84
76857;DHT22;69705;44.686;37.628;2023-08-20T02:20:02;22.48;77.72
76857;DHT22;69705;44.686;37.628;2023-08-20T02:22:31;22.56;78.30
76857;DHT22;69705;44.686;37.628;2023-08-20T02:24:58;22.58;79.28
76857;DHT22;69705;44.686;37.628;2023-08-20T02:27:25;22.55;79.74
76857;DHT22;69705;44.686;37.628;2023-08-20T02:29:52;22.66;79.27
76857;DHT22;69705;44.686;37.628;2023-08-20T02:32:19;22.73;79.82
76857;DHT22;69705;44.686;37.628;2023-08-20T02:34:50;22.67;80.54
76857;DHT22;69705;44.686;37.628;2023-08-20T02:37:17;22.70;80.85
76857;DHT22;69705;44.686;37.628;2023-08-20T02:39:45;22.71;80.91
76857;DHT22;69705;44.686;37.628;2023-08-20T02:42:13;22.76;80.81
76857;DHT22;69705;44.686;37.628;2023-08-20T02:44:40;22.80;81.78
76857;DHT22;69705;44.686;37.628;2023-08-20T02:47:07;22.72;81.86
76857;DHT22;69705;44.686;37.628;2023-08-20T02:49:34;22.73;82.10
76857;DHT22;69705;44.686;37.628;2023-08-20T02:52:03;22.77;82.13
76857;DHT22;69705;44.686;37.628;2023-08-20T02:54:30;22.84;82.26
76857;DHT22;69705;44.686;37.628;2023-08-20T02:56:59;22.88;82.63
76857;DHT22;69705;44.686;37.628;2023-08-20T02:59:26;22.92;82.52
76857;DHT22;69705;44.686;37.628;2023-08-20T03:01:53;22.96;82.41
76857;DHT22;69705;44.686;37.628;2023-08-20T03:04:20;22.99;82.23
76857;DHT22;69705;44.686;37.628;2023-08-20T03:06:46;23.01;82.33
76857;DHT22;69705;44.686;37.628;2023-08-20T03:09:13;23.00;83.10
76857;DHT22;69705;44.686;37.628;2023-08-20T03:11:39;23.05;83.62
76857;DHT22;69705;44.686;37.628;2023-08-20T03:14:06;23.08;83.66
76857;DHT22;69705;44.686;37.628;2023-08-20T03:16:33;23.14;84.27
76857;DHT22;69705;44.686;37.628;2023-08-20T03:18:59;23.20;84.17
76857;DHT22;69705;44.686;37.628;2023-08-20T03:21:26;23.23;84.31
76857;DHT22;69705;44.686;37.628;2023-08-20T03:23:52;23.25;84.96
76857;DHT22;69705;44.686;37.628;2023-08-20T03:26:19;23.28;85.61
76857;DHT22;69705;44.686;37.628;2023-08-20T03:28:46;23.32;85.59
76857;DHT22;69705;44.686;37.628;2023-08-20T03:31:12;23.37;85.38
76857;DHT22;69705;44.686;37.628;2023-08-20T03:33:41;23.42;85.83
76857;DHT22;69705;44.686;37.628;2023-08-20T03:36:08;23.46;85.70
76857;DHT22;69705;44.686;37.628;2023-08-20T03:38:35;23.54;85.85
76857;DHT22;69705;44.686;37.628;2023-08-20T03:41:01;23.59;86.15
76857;DHT22;69705;44.686;37.628;2023-08-20T03:43:29;23.68;86.17
76857;DHT22;69705;44.686;37.628;2023-08-20T03:45:55;23.81;85.64
76857;DHT22;69705;44.686;37.628;2023-08-20T03:48:22;23.96;85.71
76857;DHT22;69705;44.686;37.628;2023-08-20T03:50:49;24.09;86.47
76857;DHT22;69705;44.686;37.628;2023-08-20T03:53:16;24.23;86.90
76857;DHT22;69705;44.686;37.628;2023-08-20T03:55:48;24.38;86.78
76857;DHT22;69705;44.686;37.628;2023-08-20T03:58:16;24.47;86.51
76857;DHT22;69705;44.686;37.628;2023-08-20T04:00:44;24.61;86.12
76857;DHT22;69705;44.686;37.628;2023-08-20T04:03:11;24.72;86.37
76857;DHT22;69705;44.686;37.628;2023-08-20T04:05:39;24.86;86.95
76857;DHT22;69705;44.686;37.628;2023-08-20T04:08:06;25.00;87.22
76857;DHT22;69705;44.686;37.628;2023-08-20T04:10:33;25.12;87.57
76857;DHT22;69705;44.686;37.628;2023-08-20T04:13:00;25.24;86.67
76857;DHT22;69705;44.686;37.628;2023-08-20T04:15:27;25.37;85.35
76857;DHT22;69705;44.686;37.628;2023-08-20T04:17:54;25.49;83.33
76857;DHT22;69705;44.686;37.628;2023-08-20T04:20:21;25.62;82.26
76857;DHT22;69705;44.686;37.628;2023-08-20T04:22:48;25.71;79.49
76857;DHT22;69705;44.686;37.628;2023-08-20T04:25:15;25.79;77.40
76857;DHT22;69705;44.686;37.628;2023-08-20T04:27:42;25.86;72.28
76857;DHT22;69705;44.686;37.628;2023-08-20T04:30:09;26.02;69.68
76857;DHT22;69705;44.686;37.628;2023-08-20T04:32:37;26.13;65.44
76857;DHT22;69705;44.686;37.628;2023-08-20T04:35:05;26.24;63.61
76857;DHT22;69705;44.686;37.628;2023-08-20T04:37:33;26.36;62.59
76857;DHT22;69705;44.686;37.628;2023-08-20T04:40:00;26.47;59.92
76857;DHT22;69705;44.686;37.628;2023-08-20T04:42:29;26.58;61.11
76857;DHT22;69705;44.686;37.628;2023-08-20T04:44:56;26.68;61.80
76857;DHT22;69705;44.686;37.628;2023-08-20T04:47:25;26.79;60.81
76857;DHT22;69705;44.686;37.628;2023-08-20T04:49:51;26.87;61.28
76857;DHT22;69705;44.686;37.628;2023-08-20T04:52:19;26.95;60.74
76857;DHT22;69705;44.686;37.628;2023-08-20T04:54:47;27.05;60.61
76857;DHT22;69705;44.686;37.628;2023-08-20T04:57:14;27.11;59.91
76857;DHT22;69705;44.686;37.628;2023-08-20T04:59:42;27.23;59.51
76857;DHT22;69705;44.686;37.628;2023-08-20T05:02:34;27.35;59.72
76857;DHT22;69705;44.686;37.628;2023-08-20T05:05:02;27.49;58.94
76857;DHT22;69705;44.686;37.628;2023-08-20T05:07:29;27.58;59.17
76857;DHT22;69705;44.686;37.628;2023-08-20T05:09:56;27.69;57.25
76857;DHT22;69705;44.686;37.628;2023-08-20T05:12:23;27.79;57.45
76857;DHT22;69705;44.686;37.628;2023-08-20T05:14:49;27.90;55.83
76857;DHT22;69705;44.686;37.628;2023-08-20T05:17:16;28.00;54.24
76857;DHT22;69705;44.686;37.628;2023-08-20T05:19:43;28.13;53.72
76857;DHT22;69705;44.686;37.628;2023-08-20T05:22:10;28.25;53.41
76857;DHT22;69705;44.686;37.628;2023-08-20T05:24:39;28.42;48.99
76857;DHT22;69705;44.686;37.628;2023-08-20T05:27:15;28.54;48.01
76857;DHT22;69705;44.686;37.628;2023-08-20T05:29:45;28.69;48.15
76857;DHT22;69705;44.686;37.628;2023-08-20T05:32:12;28.88;45.85
76857;DHT22;69705;44.686;37.628;2023-08-20T05:34:39;28.99;46.99
76857;DHT22;69705;44.686;37.628;2023-08-20T05:37:05;29.07;45.47
76857;DHT22;69705;44.686;37.628;2023-08-20T05:39:41;29.29;44.29
76857;DHT22;69705;44.686;37.628;2023-08-20T05:42:08;29.45;44.16
76857;DHT22;69705;44.686;37.628;2023-08-20T05:44:36;29.56;43.11
76857;DHT22;69705;44.686;37.628;2023-08-20T05:47:03;29.60;43.62
76857;DHT22;69705;44.686;37.628;2023-08-20T05:49:32;29.76;41.90
76857;DHT22;69705;44.686;37.628;2023-08-20T05:51:59;29.91;41.57
76857;DHT22;69705;44.686;37.628;2023-08-20T05:54:27;30.07;40.09
76857;DHT22;69705;44.686;37.628;2023-08-20T05:56:57;30.32;37.91
76857;DHT22;69705;44.686;37.628;2023-08-20T05:59:24;30.54;36.93
76857;DHT22;69705;44.686;37.628;2023-08-20T06:01:53;30.69;34.82
76857;DHT22;69705;44.686;37.628;2023-08-20T06:04:21;30.95;34.70
76857;DHT22;69705;44.686;37.628;2023-08-20T06:06:47;31.06;36.23
76857;DHT22;69705;44.686;37.628;2023-08-20T06:09:14;31.10;37.56
76857;DHT22;69705;44.686;37.628;2023-08-20T06:11:40;31.18;35.97
76857;DHT22;69705;44.686;37.628;2023-08-20T06:14:07;31.24;37.22
76857;DHT22;69705;44.686;37.628;2023-08-20T06:16:34;31.28;36.90
76857;DHT22;69705;44.686;37.628;2023-08-20T06:19:00;31.31;37.09
76857;DHT22;69705;44.686;37.628;2023-08-20T06:21:27;31.36;36.78
76857;DHT22;69705;44.686;37.628;2023-08-20T06:23:54;31.49;35.11
76857;DHT22;69705;44.686;37.628;2023-08-20T06:26:20;31.58;36.11
76857;DHT22;69705;44.686;37.628;2023-08-20T06:28:47;31.65;35.10
76857;DHT22;69705;44.686;37.628;2023-08-20T06:31:14;31.78;34.86
76857;DHT22;69705;44.686;37.628;2023-08-20T06:33:40;31.92;33.80
76857;DHT22;69705;44.686;37.628;2023-08-20T06:36:07;32.05;33.96
76857;DHT22;69705;44.686;37.628;2023-08-20T06:38:34;32.19;33.06
76857;DHT22;69705;44.686;37.628;2023-08-20T06:41:00;32.34;33.63
76857;DHT22;69705;44.686;37.628;2023-08-20T06:43:27;32.57;32.61
76857;DHT22;69705;44.686;37.628;2023-08-20T06:45:53;32.78;30.98
76857;DHT22;69705;44.686;37.628;2023-08-20T06:48:20;32.88;29.88
76857;DHT22;69705;44.686;37.628;2023-08-20T06:50:48;32.99;29.82
76857;DHT22;69705;44.686;37.628;2023-08-20T06:53:15;33.12;30.20
76857;DHT22;69705;44.686;37.628;2023-08-20T06:55:41;33.21;31.03
76857;DHT22;69705;44.686;37.628;2023-08-20T06:58:08;33.26;29.75
76857;DHT22;69705;44.686;37.628;2023-08-20T07:00:35;33.37;30.38
76857;DHT22;69705;44.686;37.628;2023-08-20T07:03:02;33.48;28.74
76857;DHT22;69705;44.686;37.628;2023-08-20T07:05:29;33.60;28.58
76857;DHT22;69705;44.686;37.628;2023-08-20T07:07:56;33.73;29.29
76857;DHT22;69705;44.686;37.628;2023-08-20T07:10:23;33.79;29.74
76857;DHT22;69705;44.686;37.628;2023-08-20T07:12:49;33.89;28.44
76857;DHT22;69705;44.686;37.628;2023-08-20T07:15:16;33.94;29.29
76857;DHT22;69705;44.686;37.628;2023-08-20T07:17:42;33.96;28.34
76857;DHT22;69705;44.686;37.628;2023-08-20T07:20:09;33.95;28.30
76857;DHT22;69705;44.686;37.628;2023-08-20T07:22:36;33.99;28.27
76857;DHT22;69705;44.686;37.628;2023-08-20T07:25:03;34.05;28.27
76857;DHT22;69705;44.686;37.628;2023-08-20T07:27:30;34.18;28.71
76857;DHT22;69705;44.686;37.628;2023-08-20T07:29:56;34.34;28.35
76857;DHT22;69705;44.686;37.628;2023-08-20T07:32:23;34.41;29.41
76857;DHT22;69705;44.686;37.628;2023-08-20T07:34:50;34.51;27.94
76857;DHT22;69705;44.686;37.628;2023-08-20T07:37:16;34.62;28.87
76857;DHT22;69705;44.686;37.628;2023-08-20T07:39:43;34.71;29.13
76857;DHT22;69705;44.686;37.628;2023-08-20T07:42:10;34.76;27.82
76857;DHT22;69705;44.686;37.628;2023-08-20T07:44:38;34.77;27.46
76857;DHT22;69705;44.686;37.628;2023-08-20T07:47:05;34.77;28.21
76857;DHT22;69705;44.686;37.628;2023-08-20T07:49:31;34.82;27.73
76857;DHT22;69705;44.686;37.628;2023-08-20T07:51:58;34.93;27.65
76857;DHT22;69705;44.686;37.628;2023-08-20T07:54:25;34.97;27.55
76857;DHT22;69705;44.686;37.628;2023-08-20T07:56:53;35.04;27.79
76857;DHT22;69705;44.686;37.628;2023-08-20T07:59:19;35.04;28.00
76857;DHT22;69705;44.686;37.628;2023-08-20T08:01:46;35.18;28.29
76857;DHT22;69705;44.686;37.628;2023-08-20T08:04:13;35.21;27.81
76857;DHT22;69705;44.686;37.628;2023-08-20T08:06:39;35.30;27.79
76857;DHT22;69705;44.686;37.628;2023-08-20T08:09:29;35.28;26.07
76857;DHT22;69705;44.686;37.628;2023-08-20T08:11:58;35.33;26.01
76857;DHT22;69705;44.686;37.628;2023-08-20T08:14:25;35.47;27.59
76857;DHT22;69705;44.686;37.628;2023-08-20T08:16:52;35.65;26.14
76857;DHT22;69705;44.686;37.628;2023-08-20T08:19:18;35.74;25.35
76857;DHT22;69705;44.686;37.628;2023-08-20T08:21:46;35.75;25.55
76857;DHT22;69705;44.686;37.628;2023-08-20T08:24:14;35.79;25.30
76857;DHT22;69705;44.686;37.628;2023-08-20T08:26:41;35.89;26.04
76857;DHT22;69705;44.686;37.628;2023-08-20T08:29:08;36.09;26.61
76857;DHT22;69705;44.686;37.628;2023-08-20T08:31:35;36.18;26.39
76857;DHT22;69705;44.686;37.628;2023-08-20T08:34:02;36.31;24.85
76857;DHT22;69705;44.686;37.628;2023-08-20T08:36:29;36.33;25.66
76857;DHT22;69705;44.686;37.628;2023-08-20T08:38:56;36.40;25.59
76857;DHT22;69705;44.686;37.628;2023-08-20T08:41:23;36.51;24.94
76857;DHT22;69705;44.686;37.628;2023-08-20T08:43:53;36.54;26.34
76857;DHT22;69705;44.686;37.628;2023-08-20T08:46:20;36.69;26.38
76857;DHT22;69705;44.686;37.628;2023-08-20T08:48:48;36.72;24.53
76857;DHT22;69705;44.686;37.628;2023-08-20T08:51:16;36.86;24.49
76857;DHT22;69705;44.686;37.628;2023-08-20T08:53:43;36.88;24.45
76857;DHT22;69705;44.686;37.628;2023-08-20T08:56:11;36.90;24.04
76857;DHT22;69705;44.686;37.628;2023-08-20T08:58:37;36.97;24.31
76857;DHT22;69705;44.686;37.628;2023-08-20T09:01:05;37.03;24.33
76857;DHT22;69705;44.686;37.628;2023-08-20T09:03:32;37.22;29.94
76857;DHT22;69705;44.686;37.628;2023-08-20T09:06:02;37.04;34.03
76857;DHT22;69705;44.686;37.628;2023-08-20T09:08:34;36.75;32.43
76857;DHT22;69705;44.686;37.628;2023-08-20T09:11:01;36.69;32.33
76857;DHT22;69705;44.686;37.628;2023-08-20T09:13:39;36.43;33.37
76857;DHT22;69705;44.686;37.628;2023-08-20T09:16:07;36.01;38.01
76857;DHT22;69705;44.686;37.628;2023-08-20T09:18:45;36.06;38.46
76857;DHT22;69705;44.686;37.628;2023-08-20T09:21:13;35.97;37.67
76857;DHT22;69705;44.686;37.628;2023-08-20T09:23:45;35.87;38.98
76857;DHT22;69705;44.686;37.628;2023-08-20T09:26:12;35.75;38.85
76857;DHT22;69705;44.686;37.628;2023-08-20T09:28:44;35.62;37.75
76857;DHT22;69705;44.686;37.628;2023-08-20T09:31:13;35.64;36.54
76857;DHT22;69705;44.686;37.628;2023-08-20T09:33:53;35.73;39.27
76857;DHT22;69705;44.686;37.628;2023-08-20T09:36:33;35.63;39.14
76857;DHT22;69705;44.686;37.628;2023-08-20T09:39:03;35.52;42.13
76857;DHT22;69705;44.686;37.628;2023-08-20T09:41:30;35.58;41.55
76857;DHT22;69705;44.686;37.628;2023-08-20T09:43:59;35.75;41.65
76857;DHT22;69705;44.686;37.628;2023-08-20T09:46:27;35.56;42.29
76857;DHT22;69705;44.686;37.628;2023-08-20T09:48:57;35.53;43.24
76857;DHT22;69705;44.686;37.628;2023-08-20T09:51:28;35.71;40.82
76857;DHT22;69705;44.686;37.628;2023-08-20T09:56:54;35.78;41.90
76857;DHT22;69705;44.686;37.628;2023-08-20T09:59:26;35.88;42.58
76857;DHT22;69705;44.686;37.628;2023-08-20T10:01:55;35.69;40.73
76857;DHT22;69705;44.686;37.628;2023-08-20T10:04:23;35.94;39.85
76857;DHT22;69705;44.686;37.628;2023-08-20T10:06:52;36.04;37.48
76857;DHT22;69705;44.686;37.628;2023-08-20T10:09:21;36.00;38.45
76857;DHT22;69705;44.686;37.628;2023-08-20T10:11:49;36.15;37.79
76857;DHT22;69705;44.686;37.628;2023-08-20T10:14:16;36.17;37.01
76857;DHT22;69705;44.686;37.628;2023-08-20T10:16:43;36.15;35.95
76857;DHT22;69705;44.686;37.628;2023-08-20T10:19:10;36.16;36.50
76857;DHT22;69705;44.686;37.628;2023-08-20T10:21:44;36.25;37.28
76857;DHT22;69705;44.686;37.628;2023-08-20T10:24:18;36.32;36.04
76857;DHT22;69705;44.686;37.628;2023-08-20T10:26:46;36.26;38.10
76857;DHT22;69705;44.686;37.628;2023-08-20T10:29:37;36.31;36.72
76857;DHT22;69705;44.686;37.628;2023-08-20T10:32:12;36.16;36.79
76857;DHT22;69705;44.686;37.628;2023-08-20T10:34:43;36.09;37.11
76857;DHT22;69705;44.686;37.628;2023-08-20T10:37:13;35.99;37.14
76857;DHT22;69705;44.686;37.628;2023-08-20T10:39:41;35.81;37.17
76857;DHT22;69705;44.686;37.628;2023-08-20T10:44:59;35.95;38.61
76857;DHT22;69705;44.686;37.628;2023-08-20T10:47:56;35.86;37.09
76857;DHT22;69705;44.686;37.628;2023-08-20T10:50:24;35.96;37.54
76857;DHT22;69705;44.686;37.628;2023-08-20T10:52:56;36.19;37.21
76857;DHT22;69705;44.686;37.628;2023-08-20T10:55:23;36.31;35.23
76857;DHT22;69705;44.686;37.628;2023-08-20T10:57:59;36.29;37.32
76857;DHT22;69705;44.686;37.628;2023-08-20T11:00:29;36.31;38.23
76857;DHT22;69705;44.686;37.628;2023-08-20T11:02:57;36.23;39.08
76857;DHT22;69705;44.686;37.628;2023-08-20T11:05:26;36.44;37.95
76857;DHT22;69705;44.686;37.628;2023-08-20T11:07:53;36.58;38.24
76857;DHT22;69705;44.686;37.628;2023-08-20T11:10:20;36.62;38.51
76857;DHT22;69705;44.686;37.628;2023-08-20T11:12:47;36.56;40.01
76857;DHT22;69705;44.686;37.628;2023-08-20T11:15:15;36.53;39.61
76857;DHT22;69705;44.686;37.628;2023-08-20T11:17:45;36.71;37.87
76857;DHT22;69705;44.686;37.628;2023-08-20T11:20:14;36.63;36.92
76857;DHT22;69705;44.686;37.628;2023-08-20T11:22:42;36.61;38.00
76857;DHT22;69705;44.686;37.628;2023-08-20T11:25:11;36.64;35.46
76857;DHT22;69705;44.686;37.628;2023-08-20T11:27:43;36.72;35.76
76857;DHT22;69705;44.686;37.628;2023-08-20T11:30:11;36.89;36.17
76857;DHT22;69705;44.686;37.628;2023-08-20T11:32:39;37.06;33.77
76857;DHT22;69705;44.686;37.628;2023-08-20T11:35:07;37.04;35.01
76857;DHT22;69705;44.686;37.628;2023-08-20T11:37:34;37.02;33.92
76857;DHT22;69705;44.686;37.628;2023-08-20T11:40:02;36.98;35.23
76857;DHT22;69705;44.686;37.628;2023-08-20T11:42:29;37.00;35.99
76857;DHT22;69705;44.686;37.628;2023-08-20T11:44:56;37.02;33.01
76857;DHT22;69705;44.686;37.628;2023-08-20T11:47:24;37.20;33.87
76857;DHT22;69705;44.686;37.628;2023-08-20T11:50:04;37.33;33.83
76857;DHT22;69705;44.686;37.628;2023-08-20T11:52:33;37.37;32.94
76857;DHT22;69705;44.686;37.628;2023-08-20T11:55:00;37.27;33.16
76857;DHT22;69705;44.686;37.628;2023-08-20T11:57:30;37.19;33.58
76857;DHT22;69705;44.686;37.628;2023-08-20T12:00:05;37.28;33.23
76857;DHT22;69705;44.686;37.628;2023-08-20T12:02:43;37.50;31.89
76857;DHT22;69705;44.686;37.628;2023-08-20T12:05:09;37.51;33.01
76857;DHT22;69705;44.686;37.628;2023-08-20T12:07:36;37.56;31.73
76857;DHT22;69705;44.686;37.628;2023-08-20T12:10:22;37.52;32.43
76857;DHT22;69705;44.686;37.628;2023-08-20T12:12:49;37.50;31.77
76857;DHT22;69705;44.686;37.628;2023-08-20T12:15:17;37.48;30.99
76857;DHT22;69705;44.686;37.628;2023-08-20T12:20:28;37.43;32.40
76857;DHT22;69705;44.686;37.628;2023-08-20T12:22:58;37.52;33.51
76857;DHT22;69705;44.686;37.628;2023-08-20T12:25:25;37.50;32.22
76857;DHT22;69705;44.686;37.628;2023-08-20T12:27:52;37.46;32.94
76857;DHT22;69705;44.686;37.628;2023-08-20T12:30:19;37.47;31.42
76857;DHT22;69705;44.686;37.628;2023-08-20T12:32:46;37.34;31.91
76857;DHT22;69705;44.686;37.628;2023-08-20T12:35:13;37.32;32.54
76857;DHT22;69705;44.686;37.628;2023-08-20T12:37:41;37.46;31.73
76857;DHT22;69705;44.686;37.628;2023-08-20T12:40:08;37.44;33.22
76857;DHT22;69705;44.686;37.628;2023-08-20T12:42:37;37.44;32.02
76857;DHT22;69705;44.686;37.628;2023-08-20T12:45:08;37.33;31.93
76857;DHT22;69705;44.686;37.628;2023-08-20T12:47:36;37.35;32.72
76857;DHT22;69705;44.686;37.628;2023-08-20T12:50:03;37.31;32.51
76857;DHT22;69705;44.686;37.628;2023-08-20T12:52:31;37.34;33.11
76857;DHT22;69705;44.686;37.628;2023-08-20T12:54:58;37.31;33.60
76857;DHT22;69705;44.686;37.628;2023-08-20T12:57:25;37.16;33.68
76857;DHT22;69705;44.686;37.628;2023-08-20T12:59:52;37.21;33.41
76857;DHT22;69705;44.686;37.628;2023-08-20T13:02:19;37.21;32.53
76857;DHT22;69705;44.686;37.628;2023-08-20T13:04:47;37.13;33.41
76857;DHT22;69705;44.686;37.628;2023-08-20T13:07:14;37.28;33.38
76857;DHT22;69705;44.686;37.628;2023-08-20T13:09:42;37.50;32.84
76857;DHT22;69705;44.686;37.628;2023-08-20T13:12:10;37.36;32.51
76857;DHT22;69705;44.686;37.628;2023-08-20T13:14:40;37.40;32.82
76857;DHT22;69705;44.686;37.628;2023-08-20T13:17:08;37.22;32.70
76857;DHT22;69705;44.686;37.628;2023-08-20T13:19:34;37.11;31.93
76857;DHT22;69705;44.686;37.628;2023-08-20T13:22:01;37.33;31.90
76857;DHT22;69705;44.686;37.628;2023-08-20T13:24:28;37.01;33.43
76857;DHT22;69705;44.686;37.628;2023-08-20T13:26:55;37.19;33.15
76857;DHT22;69705;44.686;37.628;2023-08-20T13:29:21;37.19;33.06
76857;DHT22;69705;44.686;37.628;2023-08-20T13:31:48;37.15;33.03
76857;DHT22;69705;44.686;37.628;2023-08-20T13:34:15;36.95;31.39
76857;DHT22;69705;44.686;37.628;2023-08-20T13:36:42;36.68;33.63
76857;DHT22;69705;44.686;37.628;2023-08-20T13:39:08;36.64;34.67
76857;DHT22;69705;44.686;37.628;2023-08-20T13:41:35;36.73;34.70
76857;DHT22;69705;44.686;37.628;2023-08-20T13:44:02;36.84;34.34
76857;DHT22;69705;44.686;37.628;2023-08-20T13:46:28;36.86;34.26
76857;DHT22;69705;44.686;37.628;2023-08-20T13:48:55;36.80;33.93
76857;DHT22;69705;44.686;37.628;2023-08-20T13:51:22;36.68;34.35
76857;DHT22;69705;44.686;37.628;2023-08-20T13:53:48;36.61;34.29
76857;DHT22;69705;44.686;37.628;2023-08-20T13:56:15;36.45;34.24
76857;DHT22;69705;44.686;37.628;2023-08-20T13:58:42;36.23;35.27
76857;DHT22;69705;44.686;37.628;2023-08-20T14:01:09;36.13;34.97
76857;DHT22;69705;44.686;37.628;2023-08-20T14:03:36;35.94;33.73
76857;DHT22;69705;44.686;37.628;2023-08-20T14:06:03;35.75;34.55
76857;DHT22;69705;44.686;37.628;2023-08-20T14:08:29;35.68;34.52
76857;DHT22;69705;44.686;37.628;2023-08-20T14:10:56;35.51;35.98
76857;DHT22;69705;44.686;37.628;2023-08-20T14:13:22;35.37;37.08
76857;DHT22;69705;44.686;37.628;2023-08-20T14:15:49;35.15;38.31
76857;DHT22;69705;44.686;37.628;2023-08-20T14:18:16;35.08;38.10
76857;DHT22;69705;44.686;37.628;2023-08-20T14:20:42;34.95;38.95
76857;DHT22;69705;44.686;37.628;2023-08-20T14:23:09;34.85;40.98
76857;DHT22;69705;44.686;37.628;2023-08-20T14:25:36;34.82;38.29
76857;DHT22;69705;44.686;37.628;2023-08-20T14:28:03;34.73;37.37
76857;DHT22;69705;44.686;37.628;2023-08-20T14:30:29;34.55;39.81
76857;DHT22;69705;44.686;37.628;2023-08-20T14:32:56;34.51;40.16
76857;DHT22;69705;44.686;37.628;2023-08-20T14:35:23;34.42;37.59
76857;DHT22;69705;44.686;37.628;2023-08-20T14:37:52;34.35;39.17
76857;DHT22;69705;44.686;37.628;2023-08-20T14:40:20;34.23;39.73
76857;DHT22;69705;44.686;37.628;2023-08-20T14:42:46;34.16;40.20
76857;DHT22;69705;44.686;37.628;2023-08-20T14:45:13;34.14;38.98
76857;DHT22;69705;44.686;37.628;2023-08-20T14:47:40;34.10;39.89
76857;DHT22;69705;44.686;37.628;2023-08-20T14:50:07;34.00;39.99
76857;DHT22;69705;44.686;37.628;2023-08-20T14:52:34;33.88;42.61
76857;DHT22;69705;44.686;37.628;2023-08-20T14:55:01;33.72;42.90
76857;DHT22;69705;44.686;37.628;2023-08-20T14:57:28;33.53;43.22
76857;DHT22;69705;44.686;37.628;2023-08-20T14:59:55;33.42;43.09
76857;DHT22;69705;44.686;37.628;2023-08-20T15:02:21;33.30;47.82
76857;DHT22;69705;44.686;37.628;2023-08-20T15:04:48;33.23;47.67
76857;DHT22;69705;44.686;37.628;2023-08-20T15:07:15;33.13;46.36
76857;DHT22;69705;44.686;37.628;2023-08-20T15:09:42;33.05;47.70
76857;DHT22;69705;44.686;37.628;2023-08-20T15:12:08;33.00;49.28
76857;DHT22;69705;44.686;37.628;2023-08-20T15:14:35;32.91;49.57
76857;DHT22;69705;44.686;37.628;2023-08-20T15:17:02;32.83;50.90
76857;DHT22;69705;44.686;37.628;2023-08-20T15:19:29;32.67;52.58
76857;DHT22;69705;44.686;37.628;2023-08-20T15:21:58;32.54;52.29
76857;DHT22;69705;44.686;37.628;2023-08-20T15:24:25;32.47;53.04
76857;DHT22;69705;44.686;37.628;2023-08-20T15:26:52;32.31;54.40
76857;DHT22;69705;44.686;37.628;2023-08-20T15:29:18;32.23;52.85
76857;DHT22;69705;44.686;37.628;2023-08-20T15:31:45;32.05;55.56
76857;DHT22;69705;44.686;37.628;2023-08-20T15:34:12;31.94;55.61